sensor_id;sensor_type;location;lat;lon;timestamp;pressure;altitude;pressure_sealevel;temperature;humidity
55679;BME280;41573;51.446;-2.018;2023-07-29T00:01:49;99825.16;;;17.64;100.00
55679;BME280;41573;51.446;-2.018;2023-07-29T00:04:15;99835.25;;;17.62;100.00
55679;BME280;41573;51.446;-2.018;2023-07-29T00:06:40;99819.75;;;17.64;100.00
55679;BME280;41573;51.446;-2.018;2023-07-29T00:09:05;99821.94;;;17.60;100.00
55679;BME280;41573;51.446;-2.018;2023-07-29T00:11:31;99830.25;;;17.67;100.00
55679;BME280;41573;51.446;-2.018;2023-07-29T00:14:01;99832.00;;;17.58;100.00
55679;BME280;41573;51.446;-2.018;2023-07-29T00:16:27;99825.13;;;17.55;100.00
55679;BME280;41573;51.446;-2.018;2023-07-29T00:18:52;99830.78;;;17.52;100.00
55679;BME280;41573;51.446;-2.018;2023-07-29T00:21:17;99835.00;;;17.55;100.00
55679;BME280;41573;51.446;-2.018;2023-07-29T00:23:43;99827.97;;;17.54;100.00
55679;BME280;41573;51.446;-2.018;2023-07-29T00:26:08;99817.88;;;17.56;100.00
55679;BME280;41573;51.446;-2.018;2023-07-29T00:28:34;99813.22;;;17.66;100.00
55679;BME280;41573;51.446;-2.018;2023-07-29T00:30:59;99804.47;;;17.64;100.00
55679;BME280;41573;51.446;-2.018;2023-07-29T00:33:25;99795.38;;;17.65;100.00
55679;BME280;41573;51.446;-2.018;2023-07-29T00:35:50;99792.56;;;17.67;100.00
55679;BME280;41573;51.446;-2.018;2023-07-29T00:38:16;99793.31;;;17.59;100.00
55679;BME280;41573;51.446;-2.018;2023-07-29T00:40:41;99801.41;;;17.59;100.00
55679;BME280;41573;51.446;-2.018;2023-07-29T00:43:06;99793.88;;;17.63;100.00
55679;BME280;41573;51.446;-2.018;2023-07-29T00:45:32;99786.09;;;17.60;100.00
55679;BME280;41573;51.446;-2.018;2023-07-29T00:47:59;99785.16;;;17.69;100.00
55679;BME280;41573;51.446;-2.018;2023-07-29T00:50:25;99775.53;;;17.66;100.00
55679;BME280;41573;51.446;-2.018;2023-07-29T00:52:53;99775.38;;;17.68;100.00
55679;BME280;41573;51.446;-2.018;2023-07-29T00:55:19;99771.84;;;17.67;100.00
55679;BME280;41573;51.446;-2.018;2023-07-29T00:57:44;99764.09;;;17.64;100.00
55679;BME280;41573;51.446;-2.018;2023-07-29T01:00:13;99766.78;;;17.64;100.00
55679;BME280;41573;51.446;-2.018;2023-07-29T01:02:39;99770.47;;;17.63;100.00
55679;BME280;41573;51.446;-2.018;2023-07-29T01:05:04;99764.69;;;17.58;100.00
55679;BME280;41573;51.446;-2.018;2023-07-29T01:07:49;99764.03;;;17.56;100.00
55679;BME280;41573;51.446;-2.018;2023-07-29T01:10:26;99760.19;;;17.58;100.00
55679;BME280;41573;51.446;-2.018;2023-07-29T01:13:06;99766.66;;;17.48;100.00
55679;BME280;41573;51.446;-2.018;2023-07-29T01:18:26;99760.97;;;17.51;100.00
55679;BME280;41573;51.446;-2.018;2023-07-29T01:20:54;99769.19;;;17.49;100.00
55679;BME280;41573;51.446;-2.018;2023-07-29T01:23:34;99772.03;;;17.48;100.00
55679;BME280;41573;51.446;-2.018;2023-07-29T01:25:59;99772.84;;;17.40;100.00
55679;BME280;41573;51.446;-2.018;2023-07-29T01:28:26;99767.63;;;17.38;100.00
55679;BME280;41573;51.446;-2.018;2023-07-29T01:30:57;99771.69;;;17.43;100.00
55679;BME280;41573;51.446;-2.018;2023-07-29T01:33:26;99770.66;;;17.44;100.00
55679;BME280;41573;51.446;-2.018;2023-07-29T01:36:03;99765.59;;;17.40;100.00
55679;BME280;41573;51.446;-2.018;2023-07-29T01:38:38;99772.69;;;17.42;100.00
55679;BME280;41573;51.446;-2.018;2023-07-29T01:41:07;99772.69;;;17.42;100.00
55679;BME280;41573;51.446;-2.018;2023-07-29T01:43:34;99765.28;;;17.44;100.00
55679;BME280;41573;51.446;-2.018;2023-07-29T01:46:04;99757.78;;;17.29;100.00
55679;BME280;41573;51.446;-2.018;2023-07-29T01:48:29;99768.22;;;17.32;100.00
55679;BME280;41573;51.446;-2.018;2023-07-29T01:50:57;99767.53;;;17.30;100.00
55679;BME280;41573;51.446;-2.018;2023-07-29T01:53:22;99759.81;;;17.35;100.00
55679;BME280;41573;51.446;-2.018;2023-07-29T01:55:48;99758.09;;;17.26;100.00
55679;BME280;41573;51.446;-2.018;2023-07-29T01:58:14;99755.56;;;17.25;100.00
55679;BME280;41573;51.446;-2.018;2023-07-29T02:00:39;99758.47;;;17.31;100.00
55679;BME280;41573;51.446;-2.018;2023-07-29T02:03:05;99760.31;;;17.31;100.00
55679;BME280;41573;51.446;-2.018;2023-07-29T02:05:30;99759.31;;;17.32;100.00
55679;BME280;41573;51.446;-2.018;2023-07-29T02:07:56;99763.47;;;17.26;100.00
55679;BME280;41573;51.446;-2.018;2023-07-29T02:10:21;99759.63;;;17.29;100.00
55679;BME280;41573;51.446;-2.018;2023-07-29T02:12:46;99759.47;;;17.30;100.00
55679;BME280;41573;51.446;-2.018;2023-07-29T02:15:12;99754.75;;;17.32;100.00
55679;BME280;41573;51.446;-2.018;2023-07-29T02:17:37;99758.41;;;17.23;100.00
55679;BME280;41573;51.446;-2.018;2023-07-29T02:20:03;99753.22;;;17.30;100.00
55679;BME280;41573;51.446;-2.018;2023-07-29T02:22:29;99757.38;;;17.24;100.00
55679;BME280;41573;51.446;-2.018;2023-07-29T02:24:54;99766.09;;;17.18;100.00
55679;BME280;41573;51.446;-2.018;2023-07-29T02:27:20;99759.72;;;17.19;100.00
55679;BME280;41573;51.446;-2.018;2023-07-29T02:29:45;99757.34;;;17.16;100.00
55679;BME280;41573;51.446;-2.018;2023-07-29T02:32:10;99754.97;;;17.13;100.00
55679;BME280;41573;51.446;-2.018;2023-07-29T02:34:36;99753.94;;;17.14;100.00
55679;BME280;41573;51.446;-2.018;2023-07-29T02:37:01;99756.03;;;17.02;100.00
55679;BME280;41573;51.446;-2.018;2023-07-29T02:39:27;99762.09;;;17.04;100.00
55679;BME280;41573;51.446;-2.018;2023-07-29T02:41:52;99755.06;;;17.03;100.00
55679;BME280;41573;51.446;-2.018;2023-07-29T02:44:18;99760.88;;;16.98;100.00
55679;BME280;41573;51.446;-2.018;2023-07-29T02:46:44;99756.88;;;17.02;100.00
55679;BME280;41573;51.446;-2.018;2023-07-29T02:49:10;99752.28;;;17.13;100.00
55679;BME280;41573;51.446;-2.018;2023-07-29T02:51:35;99754.91;;;17.04;100.00
55679;BME280;41573;51.446;-2.018;2023-07-29T02:54:00;99746.19;;;17.11;100.00
55679;BME280;41573;51.446;-2.018;2023-07-29T02:56:26;99738.75;;;17.04;100.00
55679;BME280;41573;51.446;-2.018;2023-07-29T02:58:51;99739.59;;;17.05;100.00
55679;BME280;41573;51.446;-2.018;2023-07-29T03:01:17;99747.03;;;17.11;100.00
55679;BME280;41573;51.446;-2.018;2023-07-29T03:03:43;99749.28;;;17.16;100.00
55679;BME280;41573;51.446;-2.018;2023-07-29T03:06:10;99742.19;;;17.15;100.00
55679;BME280;41573;51.446;-2.018;2023-07-29T03:08:36;99739.50;;;17.15;100.00
55679;BME280;41573;51.446;-2.018;2023-07-29T03:11:08;99740.13;;;17.09;100.00
55679;BME280;41573;51.446;-2.018;2023-07-29T03:13:34;99736.13;;;17.13;100.00
55679;BME280;41573;51.446;-2.018;2023-07-29T03:16:14;99736.13;;;17.13;100.00
55679;BME280;41573;51.446;-2.018;2023-07-29T03:18:40;99735.81;;;17.16;100.00
55679;BME280;41573;51.446;-2.018;2023-07-29T03:21:06;99734.44;;;17.12;100.00
55679;BME280;41573;51.446;-2.018;2023-07-29T03:23:32;99734.91;;;17.07;100.00
55679;BME280;41573;51.446;-2.018;2023-07-29T03:25:59;99738.97;;;17.11;100.00
55679;BME280;41573;51.446;-2.018;2023-07-29T03:28:26;99735.28;;;17.12;100.00
55679;BME280;41573;51.446;-2.018;2023-07-29T03:30:53;99740.81;;;17.11;100.00
55679;BME280;41573;51.446;-2.018;2023-07-29T03:33:18;99740.56;;;17.04;100.00
55679;BME280;41573;51.446;-2.018;2023-07-29T03:35:44;99739.19;;;17.00;100.00
55679;BME280;41573;51.446;-2.018;2023-07-29T03:38:10;99749.44;;;16.96;100.00
55679;BME280;41573;51.446;-2.018;2023-07-29T03:40:37;99749.13;;;16.99;100.00
55679;BME280;41573;51.446;-2.018;2023-07-29T03:43:02;99748.72;;;16.94;100.00
55679;BME280;41573;51.446;-2.018;2023-07-29T03:45:27;99745.34;;;16.92;100.00
55679;BME280;41573;51.446;-2.018;2023-07-29T03:47:53;99746.03;;;16.94;100.00
55679;BME280;41573;51.446;-2.018;2023-07-29T03:50:18;99750.75;;;16.92;100.00
55679;BME280;41573;51.446;-2.018;2023-07-29T03:52:44;99754.97;;;16.95;100.00
55679;BME280;41573;51.446;-2.018;2023-07-29T03:55:09;99754.72;;;16.88;100.00
55679;BME280;41573;51.446;-2.018;2023-07-29T03:57:35;99749.91;;;16.92;100.00
55679;BME280;41573;51.446;-2.018;2023-07-29T04:00:00;99752.75;;;16.90;100.00
55679;BME280;41573;51.446;-2.018;2023-07-29T04:02:25;99753.28;;;16.94;100.00
55679;BME280;41573;51.446;-2.018;2023-07-29T04:04:51;99754.97;;;16.95;100.00
55679;BME280;41573;51.446;-2.018;2023-07-29T04:07:17;99753.75;;;16.89;100.00
55679;BME280;41573;51.446;-2.018;2023-07-29T04:09:42;99751.56;;;16.93;100.00
55679;BME280;41573;51.446;-2.018;2023-07-29T04:12:09;99751.56;;;16.93;100.00
55679;BME280;41573;51.446;-2.018;2023-07-29T04:14:34;99754.25;;;16.93;100.00
55679;BME280;41573;51.446;-2.018;2023-07-29T04:16:59;99754.41;;;16.91;100.00
55679;BME280;41573;51.446;-2.018;2023-07-29T04:19:24;99749.03;;;16.91;100.00
55679;BME280;41573;51.446;-2.018;2023-07-29T04:21:50;99748.19;;;16.91;100.00
55679;BME280;41573;51.446;-2.018;2023-07-29T04:24:16;99750.63;;;16.84;100.00
55679;BME280;41573;51.446;-2.018;2023-07-29T04:26:41;99757.41;;;16.88;100.00
55679;BME280;41573;51.446;-2.018;2023-07-29T04:29:06;99760.09;;;16.88;100.00
55679;BME280;41573;51.446;-2.018;2023-07-29T04:31:32;99751.88;;;17.52;100.00
55679;BME280;41573;51.446;-2.018;2023-07-29T04:33:57;99766.56;;;16.95;100.00
55679;BME280;41573;51.446;-2.018;2023-07-29T04:36:22;99758.38;;;16.87;100.00
55679;BME280;41573;51.446;-2.018;2023-07-29T04:38:48;99770.22;;;16.76;100.00
55679;BME280;41573;51.446;-2.018;2023-07-29T04:41:13;99765.38;;;16.80;100.00
55679;BME280;41573;51.446;-2.018;2023-07-29T04:43:38;99764.69;;;16.78;100.00
55679;BME280;41573;51.446;-2.018;2023-07-29T04:46:06;99763.97;;;16.76;100.00
55679;BME280;41573;51.446;-2.018;2023-07-29T04:48:33;99775.19;;;16.71;100.00
55679;BME280;41573;51.446;-2.018;2023-07-29T04:50:58;99768.69;;;16.74;100.00
55679;BME280;41573;51.446;-2.018;2023-07-29T04:53:23;99763.75;;;16.69;100.00
55679;BME280;41573;51.446;-2.018;2023-07-29T04:55:49;99752.31;;;16.67;100.00
55679;BME280;41573;51.446;-2.018;2023-07-29T04:58:14;99754.69;;;16.70;100.00
55679;BME280;41573;51.446;-2.018;2023-07-29T05:00:39;99757.09;;;16.73;100.00
55679;BME280;41573;51.446;-2.018;2023-07-29T05:03:05;99757.25;;;16.71;100.00
55679;BME280;41573;51.446;-2.018;2023-07-29T05:05:30;99765.59;;;16.68;100.00
55679;BME280;41573;51.446;-2.018;2023-07-29T05:07:55;99767.72;;;16.93;100.00
55679;BME280;41573;51.446;-2.018;2023-07-29T05:10:21;99764.88;;;16.94;100.00
55679;BME280;41573;51.446;-2.018;2023-07-29T05:12:46;99766.28;;;16.70;100.00
55679;BME280;41573;51.446;-2.018;2023-07-29T05:15:11;99776.28;;;16.60;100.00
55679;BME280;41573;51.446;-2.018;2023-07-29T05:17:37;99773.59;;;16.60;100.00
55679;BME280;41573;51.446;-2.018;2023-07-29T05:20:03;99775.25;;;16.61;100.00
55679;BME280;41573;51.446;-2.018;2023-07-29T05:22:29;99773.22;;;16.73;100.00
55679;BME280;41573;51.446;-2.018;2023-07-29T05:24:54;99779.13;;;16.77;100.00
55679;BME280;41573;51.446;-2.018;2023-07-29T05:27:19;99786.72;;;16.81;100.00
55679;BME280;41573;51.446;-2.018;2023-07-29T05:29:45;99781.13;;;16.75;100.00
55679;BME280;41573;51.446;-2.018;2023-07-29T05:32:10;99771.81;;;16.87;100.00
55679;BME280;41573;51.446;-2.018;2023-07-29T05:34:35;99775.69;;;16.84;100.00
55679;BME280;41573;51.446;-2.018;2023-07-29T05:37:01;99772.84;;;16.86;100.00
55679;BME280;41573;51.446;-2.018;2023-07-29T05:39:26;99770.78;;;16.98;100.00
55679;BME280;41573;51.446;-2.018;2023-07-29T05:41:51;99767.78;;;16.83;100.00
55679;BME280;41573;51.446;-2.018;2023-07-29T05:44:17;99771.31;;;16.83;100.00
55679;BME280;41573;51.446;-2.018;2023-07-29T05:46:42;99764.78;;;16.86;100.00
55679;BME280;41573;51.446;-2.018;2023-07-29T05:49:07;99767.88;;;16.91;100.00
55679;BME280;41573;51.446;-2.018;2023-07-29T05:51:33;99763.75;;;16.87;100.00
55679;BME280;41573;51.446;-2.018;2023-07-29T05:53:58;99768.31;;;16.86;100.00
55679;BME280;41573;51.446;-2.018;2023-07-29T05:56:24;99770.31;;;16.84;100.00
55679;BME280;41573;51.446;-2.018;2023-07-29T05:58:49;99768.31;;;16.86;100.00
55679;BME280;41573;51.446;-2.018;2023-07-29T06:01:15;99770.16;;;16.86;100.00
55679;BME280;41573;51.446;-2.018;2023-07-29T06:03:40;99777.34;;;16.85;100.00
55679;BME280;41573;51.446;-2.018;2023-07-29T06:06:05;99777.78;;;16.91;100.00
55679;BME280;41573;51.446;-2.018;2023-07-29T06:08:31;99779.84;;;16.97;100.00
55679;BME280;41573;51.446;-2.018;2023-07-29T06:10:59;99787.59;;;17.00;100.00
55679;BME280;41573;51.446;-2.018;2023-07-29T06:13:24;99784.31;;;17.06;100.00
55679;BME280;41573;51.446;-2.018;2023-07-29T06:15:50;99781.47;;;17.08;100.00
55679;BME280;41573;51.446;-2.018;2023-07-29T06:18:15;99781.16;;;17.11;100.00
55679;BME280;41573;51.446;-2.018;2023-07-29T06:20:40;99782.22;;;17.18;100.00
55679;BME280;41573;51.446;-2.018;2023-07-29T06:23:07;99786.78;;;17.17;100.00
55679;BME280;41573;51.446;-2.018;2023-07-29T06:25:33;99785.69;;;17.28;100.00
55679;BME280;41573;51.446;-2.018;2023-07-29T06:27:58;99780.06;;;17.39;100.00
55679;BME280;41573;51.446;-2.018;2023-07-29T06:30:24;99780.13;;;17.48;100.00
55679;BME280;41573;51.446;-2.018;2023-07-29T06:32:49;99783.88;;;17.55;100.00
55679;BME280;41573;51.446;-2.018;2023-07-29T06:35:15;99782.78;;;17.92;100.00
55679;BME280;41573;51.446;-2.018;2023-07-29T06:37:40;99782.34;;;17.79;100.00
55679;BME280;41573;51.446;-2.018;2023-07-29T06:40:06;99776.16;;;17.86;100.00
55679;BME280;41573;51.446;-2.018;2023-07-29T06:42:31;99772.72;;;17.94;100.00
55679;BME280;41573;51.446;-2.018;2023-07-29T06:44:57;99773.22;;;17.98;100.00
55679;BME280;41573;51.446;-2.018;2023-07-29T06:47:22;99773.44;;;18.04;100.00
55679;BME280;41573;51.446;-2.018;2023-07-29T06:49:48;99771.75;;;18.03;100.00
55679;BME280;41573;51.446;-2.018;2023-07-29T06:52:13;99779.81;;;18.03;100.00
55679;BME280;41573;51.446;-2.018;2023-07-29T06:54:38;99777.81;;;18.05;100.00
55679;BME280;41573;51.446;-2.018;2023-07-29T06:57:04;99769.09;;;18.12;100.00
55679;BME280;41573;51.446;-2.018;2023-07-29T06:59:30;99766.41;;;18.12;100.00
55679;BME280;41573;51.446;-2.018;2023-07-29T07:01:55;99771.78;;;18.12;100.00
55679;BME280;41573;51.446;-2.018;2023-07-29T07:04:20;99777.53;;;18.17;100.00
55679;BME280;41573;51.446;-2.018;2023-07-29T07:06:46;99774.91;;;18.25;100.00
55679;BME280;41573;51.446;-2.018;2023-07-29T07:09:11;99784.69;;;18.34;100.00
55679;BME280;41573;51.446;-2.018;2023-07-29T07:11:36;99786.06;;;18.38;100.00
55679;BME280;41573;51.446;-2.018;2023-07-29T07:14:02;99777.94;;;18.30;100.00
55679;BME280;41573;51.446;-2.018;2023-07-29T07:16:27;99780.31;;;18.41;100.00
55679;BME280;41573;51.446;-2.018;2023-07-29T07:18:55;99782.34;;;18.48;100.00
55679;BME280;41573;51.446;-2.018;2023-07-29T07:21:20;99784.44;;;18.54;100.00
55679;BME280;41573;51.446;-2.018;2023-07-29T07:23:46;99780.56;;;18.56;100.00
55679;BME280;41573;51.446;-2.018;2023-07-29T07:26:11;99780.22;;;18.59;100.00
55679;BME280;41573;51.446;-2.018;2023-07-29T07:28:37;99793.88;;;18.66;100.00
55679;BME280;41573;51.446;-2.018;2023-07-29T07:31:02;99792.38;;;18.72;100.00
55679;BME280;41573;51.446;-2.018;2023-07-29T07:33:27;99796.94;;;18.71;100.00
55679;BME280;41573;51.446;-2.018;2023-07-29T07:35:53;99798.22;;;18.51;100.00
55679;BME280;41573;51.446;-2.018;2023-07-29T07:38:18;99798.41;;;18.49;100.00
55679;BME280;41573;51.446;-2.018;2023-07-29T07:40:52;99796.50;;;18.41;100.00
55679;BME280;41573;51.446;-2.018;2023-07-29T07:43:19;99802.34;;;18.29;100.00
55679;BME280;41573;51.446;-2.018;2023-07-29T07:45:44;99795.25;;;18.19;100.00
55679;BME280;41573;51.446;-2.018;2023-07-29T07:48:09;99805.00;;;18.20;100.00
55679;BME280;41573;51.446;-2.018;2023-07-29T07:50:36;99810.22;;;18.14;100.00
55679;BME280;41573;51.446;-2.018;2023-07-29T07:53:02;99806.81;;;18.12;100.00
55679;BME280;41573;51.446;-2.018;2023-07-29T07:55:27;99822.31;;;18.09;100.00
55679;BME280;41573;51.446;-2.018;2023-07-29T07:57:52;99815.22;;;18.08;100.00
55679;BME280;41573;51.446;-2.018;2023-07-29T08:00:18;99819.91;;;18.06;100.00
55679;BME280;41573;51.446;-2.018;2023-07-29T08:02:45;99819.41;;;18.03;100.00
55679;BME280;41573;51.446;-2.018;2023-07-29T08:05:10;99831.66;;;17.97;100.00
55679;BME280;41573;51.446;-2.018;2023-07-29T08:07:35;99828.25;;;17.95;100.00
55679;BME280;41573;51.446;-2.018;2023-07-29T08:10:01;99818.69;;;18.01;100.00
55679;BME280;41573;51.446;-2.018;2023-07-29T08:12:26;99820.44;;;18.10;100.00
55679;BME280;41573;51.446;-2.018;2023-07-29T08:14:51;99820.13;;;18.13;100.00
55679;BME280;41573;51.446;-2.018;2023-07-29T08:17:17;99822.66;;;18.15;100.00
55679;BME280;41573;51.446;-2.018;2023-07-29T08:19:42;99822.22;;;18.27;100.00
55679;BME280;41573;51.446;-2.018;2023-07-29T08:22:07;99825.78;;;18.36;100.00
55679;BME280;41573;51.446;-2.018;2023-07-29T08:24:33;99831.53;;;18.41;100.00
55679;BME280;41573;51.446;-2.018;2023-07-29T08:26:59;99828.53;;;18.44;100.00
55679;BME280;41573;51.446;-2.018;2023-07-29T08:29:24;99824.00;;;18.45;100.00
55679;BME280;41573;51.446;-2.018;2023-07-29T08:31:50;99824.50;;;18.49;100.00
55679;BME280;41573;51.446;-2.018;2023-07-29T08:34:16;99820.50;;;19.37;100.00
55679;BME280;41573;51.446;-2.018;2023-07-29T08:36:42;99817.09;;;18.51;100.00
55679;BME280;41573;51.446;-2.018;2023-07-29T08:39:07;99820.81;;;18.50;100.00
55679;BME280;41573;51.446;-2.018;2023-07-29T08:41:38;99823.88;;;18.55;100.00
55679;BME280;41573;51.446;-2.018;2023-07-29T08:44:21;99818.00;;;18.76;100.00
55679;BME280;41573;51.446;-2.018;2023-07-29T08:46:48;99828.81;;;18.84;100.00
55679;BME280;41573;51.446;-2.018;2023-07-29T08:49:14;99825.97;;;18.86;100.00
55679;BME280;41573;51.446;-2.018;2023-07-29T08:51:42;99825.28;;;18.84;100.00
55679;BME280;41573;51.446;-2.018;2023-07-29T08:54:08;99833.44;;;19.00;100.00
55679;BME280;41573;51.446;-2.018;2023-07-29T08:56:35;99834.31;;;19.17;100.00
55679;BME280;41573;51.446;-2.018;2023-07-29T08:59:01;99829.13;;;19.40;100.00
55679;BME280;41573;51.446;-2.018;2023-07-29T09:01:27;99830.28;;;19.62;100.00
55679;BME280;41573;51.446;-2.018;2023-07-29T09:03:53;99827.63;;;19.79;100.00
55679;BME280;41573;51.446;-2.018;2023-07-29T09:06:19;99824.03;;;20.03;100.00
55679;BME280;41573;51.446;-2.018;2023-07-29T09:08:48;99818.63;;;19.87;100.00
55679;BME280;41573;51.446;-2.018;2023-07-29T09:11:14;99815.94;;;19.87;100.00
55679;BME280;41573;51.446;-2.018;2023-07-29T09:13:42;99822.88;;;19.81;100.00
55679;BME280;41573;51.446;-2.018;2023-07-29T09:16:08;99824.00;;;19.78;100.00
55679;BME280;41573;51.446;-2.018;2023-07-29T09:18:34;99827.44;;;19.80;100.00
55679;BME280;41573;51.446;-2.018;2023-07-29T09:21:00;99814.50;;;20.63;100.00
55679;BME280;41573;51.446;-2.018;2023-07-29T09:23:26;99823.50;;;20.56;100.00
55679;BME280;41573;51.446;-2.018;2023-07-29T09:26:00;99829.69;;;20.81;100.00
55679;BME280;41573;51.446;-2.018;2023-07-29T09:28:26;99829.44;;;19.95;100.00
55679;BME280;41573;51.446;-2.018;2023-07-29T09:30:52;99839.41;;;19.70;100.00
55679;BME280;41573;51.446;-2.018;2023-07-29T09:33:18;99839.38;;;19.78;100.00
55679;BME280;41573;51.446;-2.018;2023-07-29T09:35:44;99837.53;;;19.78;100.00
55679;BME280;41573;51.446;-2.018;2023-07-29T09:38:14;99830.47;;;19.77;100.00
55679;BME280;41573;51.446;-2.018;2023-07-29T09:40:40;99838.59;;;19.86;100.00
55679;BME280;41573;51.446;-2.018;2023-07-29T09:43:08;99828.25;;;20.06;100.00
55679;BME280;41573;51.446;-2.018;2023-07-29T09:45:35;99826.66;;;20.20;100.00
55679;BME280;41573;51.446;-2.018;2023-07-29T09:48:01;99830.34;;;20.35;100.00
55679;BME280;41573;51.446;-2.018;2023-07-29T09:50:27;99833.03;;;20.35;100.00
55679;BME280;41573;51.446;-2.018;2023-07-29T09:52:54;99834.25;;;20.32;100.00
55679;BME280;41573;51.446;-2.018;2023-07-29T09:55:24;99833.38;;;20.32;100.00
55679;BME280;41573;51.446;-2.018;2023-07-29T09:57:54;99834.09;;;20.26;100.00
55679;BME280;41573;51.446;-2.018;2023-07-29T10:00:21;99832.00;;;20.44;100.00
55679;BME280;41573;51.446;-2.018;2023-07-29T10:02:46;99828.91;;;20.56;100.00
55679;BME280;41573;51.446;-2.018;2023-07-29T10:05:12;99831.78;;;20.54;100.00
55679;BME280;41573;51.446;-2.018;2023-07-29T10:07:39;99845.28;;;20.62;100.00
55679;BME280;41573;51.446;-2.018;2023-07-29T10:10:05;99844.78;;;20.67;100.00
55679;BME280;41573;51.446;-2.018;2023-07-29T10:12:31;99833.25;;;20.65;100.00
55679;BME280;41573;51.446;-2.018;2023-07-29T10:15:05;99823.50;;;20.56;100.00
55679;BME280;41573;51.446;-2.018;2023-07-29T10:17:33;99827.53;;;20.68;100.00
55679;BME280;41573;51.446;-2.018;2023-07-29T10:19:59;99816.53;;;20.70;100.00
55679;BME280;41573;51.446;-2.018;2023-07-29T10:22:28;99811.00;;;20.55;100.00
55679;BME280;41573;51.446;-2.018;2023-07-29T10:25:05;99814.41;;;20.48;100.00
55679;BME280;41573;51.446;-2.018;2023-07-29T10:27:39;99818.09;;;20.56;100.00
55679;BME280;41573;51.446;-2.018;2023-07-29T10:30:07;99819.72;;;20.65;100.00
55679;BME280;41573;51.446;-2.018;2023-07-29T10:32:34;99816.78;;;20.83;100.00
55679;BME280;41573;51.446;-2.018;2023-07-29T10:34:59;99823.31;;;20.97;100.00
55679;BME280;41573;51.446;-2.018;2023-07-29T10:37:25;99811.59;;;21.05;100.00
55679;BME280;41573;51.446;-2.018;2023-07-29T10:39:55;99823.13;;;21.22;100.00
55679;BME280;41573;51.446;-2.018;2023-07-29T10:42:21;99814.59;;;21.33;100.00
55679;BME280;41573;51.446;-2.018;2023-07-29T10:44:48;99825.91;;;21.37;100.00
55679;BME280;41573;51.446;-2.018;2023-07-29T10:47:18;99823.13;;;21.45;100.00
55679;BME280;41573;51.446;-2.018;2023-07-29T10:49:46;99817.28;;;21.56;100.00
55679;BME280;41573;51.446;-2.018;2023-07-29T10:52:16;99824.28;;;21.74;100.00
55679;BME280;41573;51.446;-2.018;2023-07-29T10:54:46;99824.09;;;21.75;100.00
55679;BME280;41573;51.446;-2.018;2023-07-29T10:57:16;99812.19;;;21.61;100.00
55679;BME280;41573;51.446;-2.018;2023-07-29T10:59:56;99812.47;;;21.43;100.00
55679;BME280;41573;51.446;-2.018;2023-07-29T11:02:28;99820.38;;;21.53;100.00
55679;BME280;41573;51.446;-2.018;2023-07-29T11:04:54;99825.53;;;21.63;100.00
55679;BME280;41573;51.446;-2.018;2023-07-29T11:07:24;99826.13;;;21.73;100.00
55679;BME280;41573;51.446;-2.018;2023-07-29T11:09:53;99827.34;;;21.47;100.00
55679;BME280;41573;51.446;-2.018;2023-07-29T11:12:50;99824.09;;;21.29;100.00
55679;BME280;41573;51.446;-2.018;2023-07-29T11:15:27;99831.06;;;21.00;100.00
55679;BME280;41573;51.446;-2.018;2023-07-29T11:17:58;99826.09;;;20.80;100.00
55679;BME280;41573;51.446;-2.018;2023-07-29T11:20:31;99836.56;;;20.83;100.00
55679;BME280;41573;51.446;-2.018;2023-07-29T11:22:58;99845.56;;;21.07;100.00
55679;BME280;41573;51.446;-2.018;2023-07-29T11:25:26;99837.16;;;21.25;100.00
55679;BME280;41573;51.446;-2.018;2023-07-29T11:27:53;99844.31;;;21.41;100.00
55679;BME280;41573;51.446;-2.018;2023-07-29T11:30:19;99851.72;;;21.47;100.00
55679;BME280;41573;51.446;-2.018;2023-07-29T11:32:45;99846.25;;;21.32;100.00
55679;BME280;41573;51.446;-2.018;2023-07-29T11:35:14;99866.44;;;20.98;100.00
55679;BME280;41573;51.446;-2.018;2023-07-29T11:37:42;99851.78;;;20.84;100.00
55679;BME280;41573;51.446;-2.018;2023-07-29T11:40:08;99858.97;;;20.61;100.00
55679;BME280;41573;51.446;-2.018;2023-07-29T11:42:36;99858.84;;;20.54;100.00
55679;BME280;41573;51.446;-2.018;2023-07-29T11:45:02;99855.97;;;20.56;100.00
55679;BME280;41573;51.446;-2.018;2023-07-29T11:47:29;99860.66;;;20.62;100.00
55679;BME280;41573;51.446;-2.018;2023-07-29T11:49:58;99866.22;;;20.77;100.00
55679;BME280;41573;51.446;-2.018;2023-07-29T11:52:24;99873.44;;;20.84;100.00
55679;BME280;41573;51.446;-2.018;2023-07-29T11:54:50;99872.59;;;20.84;100.00
55679;BME280;41573;51.446;-2.018;2023-07-29T11:57:16;99873.97;;;21.11;100.00
55679;BME280;41573;51.446;-2.018;2023-07-29T11:59:43;99879.22;;;21.36;100.00
55679;BME280;41573;51.446;-2.018;2023-07-29T12:02:17;99879.28;;;21.59;100.00
55679;BME280;41573;51.446;-2.018;2023-07-29T12:04:46;99883.19;;;21.48;100.00
55679;BME280;41573;51.446;-2.018;2023-07-29T12:07:13;99885.03;;;21.25;100.00
55679;BME280;41573;51.446;-2.018;2023-07-29T12:09:39;99884.03;;;21.26;100.00
55679;BME280;41573;51.446;-2.018;2023-07-29T12:12:05;99884.38;;;20.99;100.00
55679;BME280;41573;51.446;-2.018;2023-07-29T12:14:32;99891.00;;;21.20;100.00
55679;BME280;41573;51.446;-2.018;2023-07-29T12:17:04;99886.50;;;21.12;100.00
55679;BME280;41573;51.446;-2.018;2023-07-29T12:19:35;99899.63;;;20.92;100.00
55679;BME280;41573;51.446;-2.018;2023-07-29T12:22:05;99907.16;;;20.74;100.00
55679;BME280;41573;51.446;-2.018;2023-07-29T12:24:32;99913.50;;;20.89;100.00
55679;BME280;41573;51.446;-2.018;2023-07-29T12:26:58;99906.03;;;20.99;100.00
55679;BME280;41573;51.446;-2.018;2023-07-29T12:29:24;99891.59;;;22.00;100.00
55679;BME280;41573;51.446;-2.018;2023-07-29T12:31:57;99888.94;;;22.15;100.00
55679;BME280;41573;51.446;-2.018;2023-07-29T12:34:25;99876.56;;;22.27;100.00
55679;BME280;41573;51.446;-2.018;2023-07-29T12:36:52;99887.94;;;21.93;100.00
55679;BME280;41573;51.446;-2.018;2023-07-29T12:39:20;99884.69;;;21.59;100.00
55679;BME280;41573;51.446;-2.018;2023-07-29T12:41:50;99876.22;;;22.30;100.00